Time;durP1;ratioP1;P1;durP2;ratioP2;P2;SDS_P1;SDS_P2;PMS_P1;PMS_P2;Temp;Humidity;BMP_temperature;BMP_pressure;BME280_temperature;BME280_humidity;BME280_pressure;Samples;Min_cycle;Max_cycle;Signal;HPM_P1;HPM_P2
2021/06/03 00:00:44;;;;;;;2.7;2.3;;;;;;;22.9;40.7;101320;;;;
2021/06/03 00:02:44;;;;;;;2.7;2.3;;;;;;;22.8;41.6;101330;;;;
2021/06/03 00:04:44;;;;;;;2.7;2.3;;;;;;;22.9;40.8;101330;;;;
2021/06/03 00:06:44;;;;;;;2.7;2.3;;;;;;;22.7;41.6;101330;;;;
2021/06/03 00:08:45;;;;;;;2.7;2.3;;;;;;;22.6;41.7;101330;;;;
2021/06/03 00:12:44;;;;;;;2.7;2.3;;;;;;;22.4;42.5;101340;;;;
2021/06/03 00:14:44;;;;;;;2.7;2.3;;;;;;;22.3;43.0;101340;;;;
2021/06/03 00:16:44;;;;;;;3.4;2.8;;;;;;;22.2;43.7;101340;;;;
2021/06/03 00:18:44;;;;;;;3.4;2.8;;;;;;;22.1;43.6;101350;;;;
2021/06/03 00:22:44;;;;;;;3.4;2.8;;;;;;;21.9;44.4;101350;;;;
2021/06/03 00:24:45;;;;;;;3.4;2.8;;;;;;;22.1;44.3;101350;;;;
2021/06/03 00:26:44;;;;;;;3.4;2.8;;;;;;;22.0;44.9;101360;;;;
2021/06/03 00:28:44;;;;;;;3.4;2.8;;;;;;;22.2;43.8;101350;;;;
2021/06/03 00:32:44;;;;;;;3.4;2.8;;;;;;;22.1;44.3;101360;;;;
2021/06/03 00:36:44;;;;;;;5.1;3.5;;;;;;;22.3;43.5;101360;;;;
2021/06/03 00:40:44;;;;;;;5.1;3.5;;;;;;;22.4;43.0;101360;;;;
2021/06/03 00:42:44;;;;;;;5.1;3.5;;;;;;;22.5;42.9;101360;;;;
2021/06/03 00:44:44;;;;;;;5.1;3.5;;;;;;;22.4;43.6;101360;;;;
2021/06/03 00:46:44;;;;;;;5.1;3.5;;;;;;;22.1;44.6;101360;;;;
2021/06/03 00:48:44;;;;;;;5.1;3.5;;;;;;;21.9;45.5;101360;;;;
2021/06/03 00:50:44;;;;;;;5.1;3.5;;;;;;;22.1;44.1;101360;;;;
2021/06/03 00:54:44;;;;;;;5.1;3.5;;;;;;;22.0;44.8;101370;;;;
2021/06/03 00:58:44;;;;;;;4.3;3.9;;;;;;;22.1;44.3;101360;;;;
2021/06/03 01:00:44;;;;;;;4.3;3.9;;;;;;;22.2;44.6;101360;;;;
2021/06/03 01:02:44;;;;;;;4.3;3.9;;;;;;;22.1;44.6;101360;;;;
2021/06/03 01:04:44;;;;;;;4.3;3.9;;;;;;;22.2;44.2;101360;;;;
2021/06/03 01:08:44;;;;;;;4.3;3.9;;;;;;;22.1;44.7;101360;;;;
2021/06/03 01:16:44;;;;;;;4.1;3.5;;;;;;;21.9;45.8;101360;;;;
2021/06/03 01:18:44;;;;;;;4.1;3.5;;;;;;;22.1;44.8;101360;;;;
2021/06/03 01:22:44;;;;;;;4.1;3.5;;;;;;;22.0;46.0;101370;;;;
2021/06/03 01:24:44;;;;;;;4.1;3.5;;;;;;;21.9;45.8;101370;;;;
2021/06/03 01:28:44;;;;;;;4.1;3.5;;;;;;;21.8;46.7;101370;;;;
2021/06/03 01:30:44;;;;;;;4.1;3.5;;;;;;;21.9;46.0;101370;;;;
2021/06/03 01:32:45;;;;;;;4.1;3.5;;;;;;;22.0;45.6;101370;;;;
2021/06/03 01:34:44;;;;;;;4.1;3.5;;;;;;;22.1;45.2;101370;;;;
2021/06/03 01:36:44;;;;;;;3.4;3.1;;;;;;;21.8;47.0;101370;;;;
2021/06/03 01:40:44;;;;;;;3.4;3.1;;;;;;;21.9;46.5;101380;;;;
2021/06/03 01:42:44;;;;;;;3.4;3.1;;;;;;;21.8;47.0;101380;;;;
2021/06/03 01:52:44;;;;;;;3.4;3.1;;;;;;;21.9;46.8;101390;;;;
2021/06/03 01:54:44;;;;;;;3.4;3.1;;;;;;;22.0;46.0;101390;;;;
2021/06/03 01:56:44;;;;;;;3.7;3.3;;;;;;;21.9;47.4;101390;;;;
2021/06/03 01:58:44;;;;;;;3.7;3.3;;;;;;;21.8;47.3;101390;;;;
2021/06/03 02:02:44;;;;;;;3.7;3.3;;;;;;;21.6;47.6;101400;;;;
2021/06/03 02:04:45;;;;;;;3.7;3.3;;;;;;;21.7;47.3;101400;;;;
2021/06/03 02:06:44;;;;;;;3.7;3.3;;;;;;;21.6;48.1;101400;;;;
2021/06/03 02:07:40;;;;;;;3.7;3.3;;;;;;;21.6;48.1;101400;;;;
2021/06/03 02:10:44;;;;;;;3.7;3.3;;;;;;;21.5;48.9;101400;;;;
2021/06/03 02:12:44;;;;;;;3.7;3.3;;;;;;;21.6;47.0;101400;;;;
2021/06/03 02:14:44;;;;;;;3.7;3.3;;;;;;;21.8;46.6;101400;;;;
2021/06/03 02:16:44;;;;;;;3.4;2.9;;;;;;;21.6;47.7;101390;;;;
2021/06/03 02:20:44;;;;;;;3.4;2.9;;;;;;;21.7;46.7;101390;;;;
2021/06/03 02:24:44;;;;;;;3.4;2.9;;;;;;;21.6;47.2;101390;;;;
2021/06/03 02:30:44;;;;;;;3.4;2.9;;;;;;;21.4;48.1;101400;;;;
2021/06/03 02:32:44;;;;;;;3.4;2.9;;;;;;;21.5;48.4;101390;;;;
2021/06/03 02:34:47;;;;;;;3.4;2.9;;;;;;;21.8;46.3;101400;;;;
2021/06/03 02:36:44;;;;;;;4.0;3.0;;;;;;;21.6;47.2;101390;;;;
2021/06/03 02:38:44;;;;;;;4.0;3.0;;;;;;;21.5;47.5;101400;;;;
2021/06/03 02:42:44;;;;;;;4.0;3.0;;;;;;;21.4;47.9;101410;;;;
2021/06/03 02:44:44;;;;;;;4.0;3.0;;;;;;;21.3;49.4;101410;;;;
2021/06/03 02:46:44;;;;;;;4.0;3.0;;;;;;;21.1;49.3;101410;;;;
2021/06/03 02:48:44;;;;;;;4.0;3.0;;;;;;;21.2;49.0;101410;;;;
2021/06/03 02:54:44;;;;;;;3.6;3.3;;;;;;;21.3;48.1;101410;;;;
2021/06/03 02:58:44;;;;;;;3.6;3.3;;;;;;;21.2;48.6;101410;;;;
2021/06/03 03:02:44;;;;;;;3.6;3.3;;;;;;;21.1;49.1;101410;;;;
2021/06/03 03:08:44;;;;;;;3.6;3.3;;;;;;;21.0;49.0;101420;;;;
2021/06/03 03:14:44;;;;;;;4.5;4.1;;;;;;;21.1;50.0;101420;;;;
2021/06/03 03:16:44;;;;;;;4.5;4.1;;;;;;;21.0;49.5;101420;;;;
2021/06/03 03:22:44;;;;;;;4.5;4.1;;;;;;;20.9;50.0;101430;;;;
2021/06/03 03:28:44;;;;;;;4.5;4.1;;;;;;;21.0;49.1;101430;;;;
2021/06/03 03:30:47;;;;;;;4.5;4.1;;;;;;;20.9;50.3;101440;;;;
2021/06/03 03:32:44;;;;;;;4.5;4.1;;;;;;;20.8;49.8;101440;;;;
2021/06/03 03:34:44;;;;;;;4.6;3.7;;;;;;;21.1;48.6;101440;;;;
2021/06/03 03:36:45;;;;;;;4.6;3.7;;;;;;;20.8;50.0;101440;;;;
2021/06/03 03:38:44;;;;;;;4.6;3.7;;;;;;;20.6;52.9;101440;;;;
2021/06/03 03:40:44;;;;;;;4.6;3.7;;;;;;;20.8;50.3;101440;;;;
2021/06/03 03:44:44;;;;;;;4.6;3.7;;;;;;;20.7;52.2;101440;;;;
2021/06/03 03:48:44;;;;;;;4.6;3.7;;;;;;;20.6;52.2;101450;;;;
2021/06/03 03:54:44;;;;;;;4.6;4.1;;;;;;;20.9;51.1;101450;;;;
2021/06/03 03:58:44;;;;;;;4.6;4.1;;;;;;;20.8;52.6;101450;;;;
2021/06/03 04:04:44;;;;;;;4.6;4.1;;;;;;;20.9;50.6;101440;;;;
2021/06/03 04:06:44;;;;;;;4.6;4.1;;;;;;;20.8;51.7;101440;;;;
2021/06/03 04:12:44;;;;;;;4.6;4.1;;;;;;;20.9;52.9;101450;;;;
2021/06/03 04:14:44;;;;;;;4.4;4.1;;;;;;;21.2;49.0;101450;;;;
2021/06/03 04:16:45;;;;;;;4.4;4.1;;;;;;;20.9;53.0;101460;;;;
2021/06/03 04:18:44;;;;;;;4.4;4.1;;;;;;;21.0;50.9;101450;;;;
2021/06/03 04:24:44;;;;;;;4.4;4.1;;;;;;;20.9;52.2;101460;;;;
2021/06/03 04:26:44;;;;;;;4.4;4.1;;;;;;;21.0;52.8;101470;;;;
2021/06/03 04:34:44;;;;;;;5.9;5.0;;;;;;;21.1;52.3;101470;;;;
2021/06/03 04:36:44;;;;;;;5.9;5.0;;;;;;;21.0;52.1;101480;;;;
2021/06/03 04:38:44;;;;;;;5.9;5.0;;;;;;;21.1;50.9;101480;;;;
2021/06/03 04:50:45;;;;;;;5.9;5.0;;;;;;;21.0;52.4;101490;;;;
2021/06/03 04:52:44;;;;;;;5.9;5.0;;;;;;;21.1;51.5;101490;;;;
2021/06/03 04:58:44;;;;;;;5.3;4.7;;;;;;;21.2;52.6;101500;;;;
2021/06/03 05:02:44;;;;;;;5.3;4.7;;;;;;;21.3;51.6;101500;;;;
2021/06/03 05:08:44;;;;;;;5.3;4.7;;;;;;;21.2;52.4;101510;;;;
2021/06/03 05:10:44;;;;;;;5.3;4.7;;;;;;;21.3;52.3;101510;;;;
2021/06/03 05:12:44;;;;;;;5.3;4.7;;;;;;;21.2;52.8;101510;;;;
2021/06/03 05:14:44;;;;;;;6.5;5.9;;;;;;;21.4;51.5;101510;;;;
2021/06/03 05:22:44;;;;;;;6.5;5.9;;;;;;;21.5;50.1;101520;;;;
2021/06/03 05:26:44;;;;;;;6.5;5.9;;;;;;;21.4;52.8;101520;;;;
2021/06/03 05:28:44;;;;;;;6.5;5.9;;;;;;;21.6;52.8;101530;;;;
2021/06/03 05:34:44;;;;;;;7.5;6.8;;;;;;;21.8;51.1;101540;;;;
2021/06/03 05:38:44;;;;;;;7.5;6.8;;;;;;;21.6;53.1;101530;;;;
2021/06/03 05:40:44;;;;;;;7.5;6.8;;;;;;;21.7;53.0;101530;;;;
2021/06/03 05:42:44;;;;;;;7.5;6.8;;;;;;;21.8;52.7;101540;;;;
2021/06/03 05:44:44;;;;;;;7.5;6.8;;;;;;;21.9;52.0;101540;;;;
2021/06/03 05:46:44;;;;;;;7.5;6.8;;;;;;;22.0;52.9;101540;;;;
2021/06/03 05:54:44;;;;;;;7.5;6.8;;;;;;;22.1;51.6;101550;;;;
2021/06/03 05:56:44;;;;;;;7.5;6.8;;;;;;;22.2;52.8;101550;;;;
2021/06/03 05:58:44;;;;;;;7.5;6.8;;;;;;;22.1;51.7;101550;;;;
2021/06/03 06:00:44;;;;;;;7.5;6.8;;;;;;;22.2;53.2;101560;;;;
2021/06/03 06:02:55;;;;;;;7.5;6.8;;;;;;;22.1;53.4;101560;;;;
2021/06/03 06:06:44;;;;;;;7.5;6.8;;;;;;;22.3;51.4;101570;;;;
2021/06/03 06:08:44;;;;;;;7.5;6.8;;;;;;;22.4;52.1;101570;;;;
2021/06/03 06:10:44;;;;;;;7.5;6.8;;;;;;;22.5;51.1;101570;;;;
2021/06/03 06:12:44;;;;;;;7.5;6.8;;;;;;;22.3;53.6;101570;;;;
2021/06/03 06:14:44;;;;;;;9.2;8.4;;;;;;;22.5;52.6;101570;;;;
2021/06/03 06:18:44;;;;;;;9.2;8.4;;;;;;;22.6;50.7;101580;;;;
2021/06/03 06:22:44;;;;;;;9.2;8.4;;;;;;;22.7;51.5;101580;;;;
2021/06/03 06:24:44;;;;;;;9.2;8.4;;;;;;;22.6;53.9;101580;;;;
2021/06/03 06:26:44;;;;;;;9.2;8.4;;;;;;;22.7;52.1;101590;;;;
2021/06/03 06:28:44;;;;;;;9.2;8.4;;;;;;;22.8;52.4;101590;;;;
2021/06/03 06:34:44;;;;;;;8.3;7.6;;;;;;;22.9;50.9;101590;;;;
2021/06/03 06:36:44;;;;;;;8.3;7.6;;;;;;;22.8;52.0;101590;;;;
2021/06/03 06:40:44;;;;;;;8.3;7.6;;;;;;;22.7;53.2;101590;;;;
2021/06/03 06:42:45;;;;;;;8.3;7.6;;;;;;;22.8;53.6;101590;;;;
2021/06/03 06:44:44;;;;;;;8.3;7.6;;;;;;;23.0;50.8;101590;;;;
2021/06/03 06:54:45;;;;;;;8.4;7.7;;;;;;;23.1;52.7;101600;;;;
2021/06/03 07:08:44;;;;;;;8.4;7.7;;;;;;;23.2;53.6;101600;;;;
2021/06/03 07:12:44;;;;;;;8.4;7.7;;;;;;;23.4;51.9;101600;;;;
2021/06/03 07:14:44;;;;;;;9.4;8.6;;;;;;;23.6;51.3;101600;;;;
2021/06/03 07:18:44;;;;;;;9.4;8.6;;;;;;;23.7;53.5;101610;;;;
2021/06/03 07:20:44;;;;;;;9.4;8.6;;;;;;;23.6;53.2;101610;;;;
2021/06/03 07:22:44;;;;;;;9.4;8.6;;;;;;;23.8;52.1;101600;;;;
2021/06/03 07:24:45;;;;;;;9.4;8.6;;;;;;;23.9;52.5;101610;;;;
2021/06/03 07:28:46;;;;;;;9.4;8.6;;;;;;;24.1;52.2;101600;;;;
2021/06/03 07:30:44;;;;;;;9.4;8.6;;;;;;;24.2;50.9;101590;;;;
2021/06/03 07:32:44;;;;;;;9.4;8.6;;;;;;;24.3;51.3;101590;;;;
2021/06/03 07:34:44;;;;;;;10.0;9.0;;;;;;;24.4;50.3;101590;;;;
2021/06/03 07:36:44;;;;;;;10.0;9.0;;;;;;;24.5;50.6;101600;;;;
2021/06/03 07:40:44;;;;;;;10.0;9.0;;;;;;;24.7;50.5;101590;;;;
2021/06/03 07:42:44;;;;;;;10.0;9.0;;;;;;;24.8;50.9;101600;;;;
2021/06/03 07:44:46;;;;;;;10.0;9.0;;;;;;;24.9;49.9;101600;;;;
2021/06/03 07:48:44;;;;;;;10.0;9.0;;;;;;;25.0;50.5;101600;;;;
2021/06/03 07:50:44;;;;;;;10.0;9.0;;;;;;;25.1;50.0;101600;;;;
2021/06/03 07:56:44;;;;;;;8.8;7.9;;;;;;;25.0;49.2;101610;;;;
2021/06/03 08:04:44;;;;;;;8.8;7.9;;;;;;;25.1;49.8;101610;;;;
2021/06/03 08:06:44;;;;;;;8.8;7.9;;;;;;;25.2;49.7;101610;;;;
2021/06/03 08:08:44;;;;;;;8.8;7.9;;;;;;;25.3;49.6;101610;;;;
2021/06/03 08:12:44;;;;;;;8.8;7.9;;;;;;;25.4;49.4;101610;;;;
2021/06/03 08:16:44;;;;;;;7.8;7.1;;;;;;;25.6;48.6;101620;;;;
2021/06/03 08:20:44;;;;;;;7.8;7.1;;;;;;;25.7;49.5;101620;;;;
2021/06/03 08:22:44;;;;;;;7.8;7.1;;;;;;;26.0;47.4;101620;;;;
2021/06/03 08:24:44;;;;;;;7.8;7.1;;;;;;;25.8;48.7;101620;;;;
2021/06/03 08:26:50;;;;;;;7.8;7.1;;;;;;;25.9;49.2;101630;;;;
2021/06/03 08:28:44;;;;;;;7.8;7.1;;;;;;;26.2;49.0;101630;;;;
2021/06/03 08:30:44;;;;;;;7.8;7.1;;;;;;;26.4;47.8;101630;;;;
2021/06/03 08:32:44;;;;;;;7.8;7.1;;;;;;;26.6;48.1;101630;;;;
2021/06/03 08:34:44;;;;;;;8.8;7.7;;;;;;;26.9;47.4;101630;;;;
2021/06/03 08:36:44;;;;;;;8.8;7.7;;;;;;;26.8;47.1;101640;;;;
2021/06/03 08:38:44;;;;;;;8.8;7.7;;;;;;;27.0;47.3;101630;;;;
2021/06/03 08:40:44;;;;;;;8.8;7.7;;;;;;;27.2;46.8;101630;;;;
2021/06/03 08:42:44;;;;;;;8.8;7.7;;;;;;;27.3;46.3;101630;;;;
2021/06/03 08:44:44;;;;;;;8.8;7.7;;;;;;;27.1;46.2;101630;;;;
2021/06/03 08:46:49;;;;;;;8.8;7.7;;;;;;;27.3;45.8;101640;;;;
2021/06/03 08:48:46;;;;;;;8.8;7.7;;;;;;;27.4;45.6;101640;;;;
2021/06/03 08:50:44;;;;;;;8.8;7.7;;;;;;;27.3;45.5;101640;;;;
2021/06/03 08:54:44;;;;;;;9.9;9.0;;;;;;;27.6;45.5;101640;;;;
2021/06/03 08:56:44;;;;;;;9.9;9.0;;;;;;;27.7;45.2;101640;;;;
2021/06/03 08:58:44;;;;;;;9.9;9.0;;;;;;;27.5;45.4;101640;;;;
2021/06/03 09:00:44;;;;;;;9.9;9.0;;;;;;;27.4;45.5;101640;;;;
2021/06/03 09:02:44;;;;;;;9.9;9.0;;;;;;;27.1;45.6;101640;;;;
2021/06/03 09:04:44;;;;;;;9.9;9.0;;;;;;;27.2;45.4;101640;;;;
2021/06/03 09:12:44;;;;;;;9.9;9.0;;;;;;;27.1;45.7;101640;;;;
2021/06/03 09:14:44;;;;;;;8.6;7.7;;;;;;;27.2;45.7;101640;;;;
2021/06/03 09:22:44;;;;;;;8.6;7.7;;;;;;;27.3;46.4;101640;;;;
2021/06/03 09:24:44;;;;;;;8.6;7.7;;;;;;;27.1;47.1;101640;;;;
2021/06/03 09:26:44;;;;;;;8.6;7.7;;;;;;;27.4;46.4;101640;;;;
2021/06/03 09:28:44;;;;;;;8.6;7.7;;;;;;;27.3;46.7;101640;;;;
2021/06/03 09:30:44;;;;;;;8.6;7.7;;;;;;;27.5;45.8;101640;;;;
2021/06/03 09:36:46;;;;;;;8.4;7.6;;;;;;;27.2;46.3;101650;;;;
2021/06/03 09:38:44;;;;;;;8.4;7.6;;;;;;;27.0;46.6;101650;;;;
2021/06/03 09:42:44;;;;;;;8.4;7.6;;;;;;;27.1;46.5;101650;;;;
2021/06/03 09:44:55;;;;;;;8.4;7.6;;;;;;;27.2;46.2;101650;;;;
2021/06/03 09:46:44;;;;;;;8.4;7.6;;;;;;;27.4;46.0;101660;;;;
2021/06/03 09:48:44;;;;;;;8.4;7.6;;;;;;;27.1;46.3;101660;;;;
2021/06/03 09:50:44;;;;;;;8.4;7.6;;;;;;;27.0;46.9;101660;;;;
2021/06/03 09:52:44;;;;;;;8.4;7.6;;;;;;;27.1;46.7;101660;;;;
2021/06/03 09:54:46;;;;;;;13.2;9.4;;;;;;;27.2;46.4;101660;;;;
2021/06/03 09:56:45;;;;;;;13.2;9.4;;;;;;;27.3;46.3;101660;;;;
2021/06/03 10:00:46;;;;;;;13.2;9.4;;;;;;;27.4;46.4;101660;;;;
2021/06/03 10:08:44;;;;;;;13.2;9.4;;;;;;;27.2;47.0;101670;;;;
2021/06/03 10:10:44;;;;;;;13.2;9.4;;;;;;;27.0;47.4;101660;;;;
2021/06/03 10:12:44;;;;;;;13.2;9.4;;;;;;;26.9;47.5;101660;;;;
2021/06/03 10:14:44;;;;;;;10.4;9.4;;;;;;;27.0;47.7;101660;;;;
2021/06/03 10:16:44;;;;;;;10.4;9.4;;;;;;;27.2;47.4;101660;;;;
2021/06/03 10:18:44;;;;;;;10.4;9.4;;;;;;;27.3;47.3;101670;;;;
2021/06/03 10:20:44;;;;;;;10.4;9.4;;;;;;;27.2;47.2;101670;;;;
2021/06/03 10:22:44;;;;;;;10.4;9.4;;;;;;;27.4;46.8;101670;;;;
2021/06/03 10:24:44;;;;;;;10.4;9.4;;;;;;;27.5;46.8;101670;;;;
2021/06/03 10:26:44;;;;;;;10.4;9.4;;;;;;;27.6;46.5;101670;;;;
2021/06/03 10:28:44;;;;;;;10.4;9.4;;;;;;;27.3;47.9;101670;;;;
2021/06/03 10:30:45;;;;;;;10.4;9.4;;;;;;;27.5;46.9;101670;;;;
2021/06/03 10:32:44;;;;;;;10.4;9.4;;;;;;;27.6;46.6;101670;;;;
2021/06/03 10:36:44;;;;;;;10.3;9.2;;;;;;;27.4;47.0;101670;;;;
2021/06/03 10:38:44;;;;;;;10.3;9.2;;;;;;;27.5;46.7;101660;;;;
2021/06/03 10:40:44;;;;;;;10.3;9.2;;;;;;;27.3;46.9;101660;;;;
2021/06/03 10:42:44;;;;;;;10.3;9.2;;;;;;;27.5;46.8;101660;;;;
2021/06/03 10:46:44;;;;;;;10.3;9.2;;;;;;;27.4;47.2;101660;;;;
2021/06/03 10:50:44;;;;;;;10.3;9.2;;;;;;;27.3;47.2;101660;;;;
2021/06/03 10:52:44;;;;;;;10.3;9.2;;;;;;;27.2;47.2;101660;;;;
2021/06/03 10:54:44;;;;;;;12.4;11.1;;;;;;;27.5;46.9;101670;;;;
2021/06/03 10:56:44;;;;;;;12.4;11.1;;;;;;;27.4;47.0;101670;;;;
2021/06/03 10:58:44;;;;;;;12.4;11.1;;;;;;;27.3;47.0;101670;;;;
2021/06/03 11:00:45;;;;;;;12.4;11.1;;;;;;;27.1;47.6;101670;;;;
2021/06/03 11:02:44;;;;;;;12.4;11.1;;;;;;;27.2;47.3;101670;;;;
2021/06/03 11:04:44;;;;;;;12.4;11.1;;;;;;;27.1;47.4;101670;;;;
2021/06/03 11:06:44;;;;;;;12.4;11.1;;;;;;;27.2;47.5;101670;;;;
2021/06/03 11:10:44;;;;;;;12.4;11.1;;;;;;;27.1;47.5;101670;;;;
2021/06/03 11:12:44;;;;;;;12.4;11.1;;;;;;;27.3;47.2;101670;;;;
2021/06/03 11:14:44;;;;;;;12.9;11.7;;;;;;;27.2;47.5;101670;;;;
2021/06/03 11:16:45;;;;;;;12.9;11.7;;;;;;;26.7;49.5;101670;;;;
2021/06/03 11:20:44;;;;;;;12.9;11.7;;;;;;;26.4;54.3;101670;;;;
2021/06/03 11:24:44;;;;;;;12.9;11.7;;;;;;;26.2;56.1;101670;;;;
2021/06/03 11:26:45;;;;;;;12.9;11.7;;;;;;;26.4;58.0;101670;;;;
2021/06/03 11:28:44;;;;;;;12.9;11.7;;;;;;;26.3;58.1;101670;;;;
2021/06/03 11:30:44;;;;;;;12.9;11.7;;;;;;;26.0;60.3;101670;;;;
2021/06/03 11:32:44;;;;;;;12.9;11.7;;;;;;;26.1;59.4;101670;;;;
2021/06/03 11:34:44;;;;;;;16.7;15.0;;;;;;;26.3;59.2;101670;;;;
2021/06/03 11:36:45;;;;;;;16.7;15.0;;;;;;;26.1;60.2;101660;;;;
2021/06/03 11:38:44;;;;;;;16.7;15.0;;;;;;;26.5;57.8;101660;;;;
2021/06/03 11:42:46;;;;;;;16.7;15.0;;;;;;;26.6;59.9;101660;;;;
2021/06/03 11:44:44;;;;;;;16.7;15.0;;;;;;;26.9;60.4;101660;;;;
2021/06/03 11:46:44;;;;;;;16.7;15.0;;;;;;;27.1;57.4;101660;;;;
2021/06/03 11:48:44;;;;;;;16.7;15.0;;;;;;;27.3;57.1;101670;;;;
2021/06/03 11:50:44;;;;;;;16.7;15.0;;;;;;;27.2;51.8;101660;;;;
2021/06/03 11:52:44;;;;;;;16.7;15.0;;;;;;;27.3;54.8;101660;;;;
2021/06/03 11:56:44;;;;;;;11.2;10.3;;;;;;;27.0;53.8;101650;;;;
2021/06/03 11:58:44;;;;;;;11.2;10.3;;;;;;;26.9;52.1;101650;;;;
2021/06/03 12:00:44;;;;;;;11.2;10.3;;;;;;;26.7;52.7;101650;;;;
2021/06/03 12:02:45;;;;;;;11.2;10.3;;;;;;;26.8;52.2;101650;;;;
2021/06/03 12:04:44;;;;;;;11.2;10.3;;;;;;;26.9;51.8;101650;;;;
2021/06/03 12:06:44;;;;;;;11.2;10.3;;;;;;;26.8;51.9;101640;;;;
2021/06/03 12:08:44;;;;;;;11.2;10.3;;;;;;;26.9;51.7;101640;;;;
2021/06/03 12:10:44;;;;;;;11.2;10.3;;;;;;;26.8;53.1;101650;;;;
2021/06/03 12:12:44;;;;;;;11.2;10.3;;;;;;;26.9;52.8;101640;;;;
2021/06/03 12:14:44;;;;;;;14.3;13.0;;;;;;;27.0;53.0;101640;;;;
2021/06/03 12:16:44;;;;;;;14.3;13.0;;;;;;;26.9;54.4;101640;;;;
2021/06/03 12:18:44;;;;;;;14.3;13.0;;;;;;;26.8;54.9;101640;;;;
2021/06/03 12:20:44;;;;;;;14.3;13.0;;;;;;;26.7;54.5;101650;;;;
2021/06/03 12:22:44;;;;;;;14.3;13.0;;;;;;;26.8;53.9;101650;;;;
2021/06/03 12:26:44;;;;;;;14.3;13.0;;;;;;;26.9;55.4;101660;;;;
2021/06/03 12:34:49;;;;;;;18.9;17.3;;;;;;;27.0;54.0;101650;;;;
2021/06/03 12:36:44;;;;;;;18.9;17.3;;;;;;;26.9;54.0;101650;;;;
2021/06/03 12:40:44;;;;;;;18.9;17.3;;;;;;;27.0;54.3;101650;;;;
2021/06/03 12:42:44;;;;;;;18.9;17.3;;;;;;;26.8;56.1;101650;;;;
2021/06/03 12:44:44;;;;;;;18.9;17.3;;;;;;;27.0;55.1;101650;;;;
2021/06/03 12:46:44;;;;;;;18.9;17.3;;;;;;;27.2;56.7;101650;;;;
2021/06/03 12:48:44;;;;;;;18.9;17.3;;;;;;;27.1;57.4;101650;;;;
2021/06/03 12:50:44;;;;;;;18.9;17.3;;;;;;;27.4;57.0;101650;;;;
2021/06/03 12:52:49;;;;;;;18.9;17.3;;;;;;;27.6;56.9;101650;;;;
2021/06/03 12:54:44;;;;;;;19.3;17.6;;;;;;;27.5;55.5;101650;;;;
2021/06/03 12:56:44;;;;;;;19.3;17.6;;;;;;;27.7;54.9;101640;;;;
2021/06/03 12:58:44;;;;;;;19.3;17.6;;;;;;;28.0;53.2;101640;;;;
2021/06/03 13:02:47;;;;;;;19.3;17.6;;;;;;;27.9;52.8;101630;;;;
2021/06/03 13:04:44;;;;;;;19.3;17.6;;;;;;;28.3;55.3;101630;;;;
2021/06/03 13:06:44;;;;;;;19.3;17.6;;;;;;;28.5;51.5;101630;;;;
2021/06/03 13:08:44;;;;;;;19.3;17.6;;;;;;;28.4;50.7;101630;;;;
2021/06/03 13:10:44;;;;;;;19.3;17.6;;;;;;;27.9;50.2;101620;;;;
2021/06/03 13:12:44;;;;;;;19.3;17.6;;;;;;;28.2;50.6;101620;;;;
2021/06/03 13:14:44;;;;;;;15.1;13.8;;;;;;;28.3;50.4;101620;;;;
2021/06/03 13:16:44;;;;;;;15.1;13.8;;;;;;;28.4;50.1;101620;;;;
2021/06/03 13:22:44;;;;;;;15.1;13.8;;;;;;;28.6;49.0;101620;;;;
2021/06/03 13:24:44;;;;;;;15.1;13.8;;;;;;;28.5;47.1;101640;;;;
2021/06/03 13:26:44;;;;;;;15.1;13.8;;;;;;;27.8;48.9;101650;;;;
2021/06/03 13:28:44;;;;;;;15.1;13.8;;;;;;;27.2;49.7;101650;;;;
2021/06/03 13:36:44;;;;;;;11.3;10.3;;;;;;;26.5;55.3;101650;;;;
2021/06/03 13:38:44;;;;;;;11.3;10.3;;;;;;;26.0;60.2;101640;;;;
2021/06/03 13:44:44;;;;;;;11.3;10.3;;;;;;;25.9;62.5;101660;;;;
2021/06/03 13:46:44;;;;;;;11.3;10.3;;;;;;;25.6;64.9;101680;;;;
2021/06/03 13:48:46;;;;;;;11.3;10.3;;;;;;;25.0;65.1;101690;;;;
2021/06/03 13:50:44;;;;;;;11.3;10.3;;;;;;;24.9;65.7;101690;;;;
2021/06/03 13:52:44;;;;;;;11.3;10.3;;;;;;;24.8;66.4;101670;;;;
2021/06/03 13:54:44;;;;;;;17.5;15.9;;;;;;;24.7;66.1;101660;;;;
2021/06/03 13:56:44;;;;;;;17.5;15.9;;;;;;;24.2;65.3;101650;;;;
2021/06/03 13:58:44;;;;;;;17.5;15.9;;;;;;;24.5;67.6;101640;;;;
2021/06/03 14:00:45;;;;;;;17.5;15.9;;;;;;;24.8;69.5;101650;;;;
2021/06/03 14:02:44;;;;;;;17.5;15.9;;;;;;;24.9;68.9;101650;;;;
2021/06/03 14:04:44;;;;;;;17.5;15.9;;;;;;;25.1;68.9;101650;;;;
2021/06/03 14:06:44;;;;;;;17.5;15.9;;;;;;;25.3;68.4;101660;;;;
2021/06/03 14:08:44;;;;;;;17.5;15.9;;;;;;;25.2;66.3;101660;;;;
2021/06/03 14:10:44;;;;;;;17.5;15.9;;;;;;;25.3;67.7;101660;;;;
2021/06/03 14:12:48;;;;;;;17.5;15.9;;;;;;;25.4;67.0;101660;;;;
2021/06/03 14:14:47;;;;;;;15.1;13.9;;;;;;;25.8;68.2;101660;;;;
2021/06/03 14:16:45;;;;;;;15.1;13.9;;;;;;;25.6;66.4;101650;;;;
2021/06/03 14:18:44;;;;;;;15.1;13.9;;;;;;;25.8;68.0;101650;;;;
2021/06/03 14:20:44;;;;;;;15.1;13.9;;;;;;;26.0;68.7;101640;;;;
2021/06/03 14:24:44;;;;;;;15.1;13.9;;;;;;;26.2;67.2;101640;;;;
2021/06/03 14:28:44;;;;;;;15.1;13.9;;;;;;;26.3;65.8;101650;;;;
2021/06/03 14:30:44;;;;;;;15.1;13.9;;;;;;;26.5;65.9;101650;;;;
2021/06/03 14:32:44;;;;;;;15.1;13.9;;;;;;;26.3;67.0;101650;;;;
2021/06/03 14:34:44;;;;;;;10.6;9.5;;;;;;;25.8;64.4;101650;;;;
2021/06/03 14:36:44;;;;;;;10.6;9.5;;;;;;;25.9;66.2;101660;;;;
2021/06/03 14:38:44;;;;;;;10.6;9.5;;;;;;;25.8;64.9;101660;;;;
2021/06/03 14:40:44;;;;;;;10.6;9.5;;;;;;;25.4;65.1;101660;;;;
2021/06/03 14:42:44;;;;;;;10.6;9.5;;;;;;;25.5;66.2;101650;;;;
2021/06/03 14:44:44;;;;;;;10.6;9.5;;;;;;;25.4;64.0;101650;;;;
2021/06/03 14:48:44;;;;;;;10.6;9.5;;;;;;;25.7;64.6;101660;;;;
2021/06/03 14:50:44;;;;;;;10.6;9.5;;;;;;;26.0;64.1;101650;;;;
2021/06/03 14:52:46;;;;;;;10.6;9.5;;;;;;;25.8;63.5;101640;;;;
2021/06/03 14:54:44;;;;;;;7.6;6.9;;;;;;;25.7;62.2;101640;;;;
2021/06/03 14:56:44;;;;;;;7.6;6.9;;;;;;;26.0;63.1;101640;;;;
2021/06/03 14:58:44;;;;;;;7.6;6.9;;;;;;;25.9;60.8;101640;;;;
2021/06/03 15:00:44;;;;;;;7.6;6.9;;;;;;;26.1;62.1;101630;;;;
2021/06/03 15:02:45;;;;;;;7.6;6.9;;;;;;;26.3;60.0;101630;;;;
2021/06/03 15:08:44;;;;;;;7.6;6.9;;;;;;;26.0;60.1;101630;;;;
2021/06/03 15:14:44;;;;;;;8.6;7.9;;;;;;;25.9;58.7;101650;;;;
2021/06/03 15:16:45;;;;;;;8.6;7.9;;;;;;;25.4;59.8;101650;;;;
2021/06/03 15:18:44;;;;;;;8.6;7.9;;;;;;;25.3;60.2;101650;;;;
2021/06/03 15:20:45;;;;;;;8.6;7.9;;;;;;;25.1;61.4;101640;;;;
2021/06/03 15:24:46;;;;;;;8.6;7.9;;;;;;;25.0;60.7;101640;;;;
2021/06/03 15:26:44;;;;;;;8.6;7.9;;;;;;;25.2;60.8;101640;;;;
2021/06/03 15:28:44;;;;;;;8.6;7.9;;;;;;;24.9;60.2;101640;;;;
2021/06/03 15:30:45;;;;;;;8.6;7.9;;;;;;;24.8;60.7;101650;;;;
2021/06/03 15:32:45;;;;;;;8.6;7.9;;;;;;;24.6;60.1;101650;;;;
2021/06/03 15:34:44;;;;;;;11.7;10.7;;;;;;;24.9;59.8;101650;;;;
2021/06/03 15:36:45;;;;;;;11.7;10.7;;;;;;;24.8;60.3;101650;;;;
2021/06/03 15:38:44;;;;;;;11.7;10.7;;;;;;;24.5;60.4;101650;;;;
2021/06/03 15:40:45;;;;;;;11.7;10.7;;;;;;;24.2;61.7;101650;;;;
2021/06/03 15:44:44;;;;;;;11.7;10.7;;;;;;;24.1;62.5;101660;;;;
2021/06/03 15:46:44;;;;;;;11.7;10.7;;;;;;;24.0;63.1;101660;;;;
2021/06/03 15:48:44;;;;;;;11.7;10.7;;;;;;;24.1;64.9;101660;;;;
2021/06/03 15:50:47;;;;;;;11.7;10.7;;;;;;;23.8;65.8;101670;;;;
2021/06/03 15:54:47;;;;;;;24.1;22.1;;;;;;;24.1;64.4;101660;;;;
2021/06/03 15:56:44;;;;;;;24.1;22.1;;;;;;;23.8;65.7;101660;;;;
2021/06/03 15:58:44;;;;;;;24.1;22.1;;;;;;;23.7;66.8;101660;;;;
2021/06/03 16:00:44;;;;;;;24.1;22.1;;;;;;;23.9;66.2;101660;;;;
2021/06/03 16:02:44;;;;;;;24.1;22.1;;;;;;;24.1;65.0;101650;;;;
2021/06/03 16:04:44;;;;;;;24.1;22.1;;;;;;;24.3;63.4;101650;;;;
2021/06/03 16:06:44;;;;;;;24.1;22.1;;;;;;;24.5;63.8;101650;;;;
2021/06/03 16:08:44;;;;;;;24.1;22.1;;;;;;;24.4;63.8;101650;;;;
2021/06/03 16:10:44;;;;;;;24.1;22.1;;;;;;;24.5;62.3;101640;;;;
2021/06/03 16:12:45;;;;;;;24.1;22.1;;;;;;;24.4;62.2;101640;;;;
2021/06/03 16:14:44;;;;;;;19.0;17.3;;;;;;;24.7;61.3;101640;;;;
2021/06/03 16:16:44;;;;;;;19.0;17.3;;;;;;;24.8;61.7;101650;;;;
2021/06/03 16:20:44;;;;;;;19.0;17.3;;;;;;;25.0;63.4;101650;;;;
2021/06/03 16:22:44;;;;;;;19.0;17.3;;;;;;;25.3;62.3;101650;;;;
2021/06/03 16:24:44;;;;;;;19.0;17.3;;;;;;;25.6;63.6;101650;;;;
2021/06/03 16:26:44;;;;;;;19.0;17.3;;;;;;;25.7;62.6;101650;;;;
2021/06/03 16:28:44;;;;;;;19.0;17.3;;;;;;;25.8;63.2;101660;;;;
2021/06/03 16:30:44;;;;;;;19.0;17.3;;;;;;;25.9;62.3;101660;;;;
2021/06/03 16:34:44;;;;;;;21.6;19.5;;;;;;;26.1;63.9;101660;;;;
2021/06/03 16:36:44;;;;;;;21.6;19.5;;;;;;;26.3;64.8;101660;;;;
2021/06/03 16:38:44;;;;;;;21.6;19.5;;;;;;;26.4;62.9;101660;;;;
2021/06/03 16:40:44;;;;;;;21.6;19.5;;;;;;;26.8;62.5;101650;;;;
2021/06/03 16:42:44;;;;;;;21.6;19.5;;;;;;;27.3;62.1;101660;;;;
2021/06/03 16:44:44;;;;;;;21.6;19.5;;;;;;;27.2;60.9;101650;;;;
2021/06/03 16:46:45;;;;;;;21.6;19.5;;;;;;;27.0;59.7;101650;;;;
2021/06/03 16:48:44;;;;;;;21.6;19.5;;;;;;;27.1;61.3;101650;;;;
2021/06/03 16:50:44;;;;;;;21.6;19.5;;;;;;;27.4;59.5;101650;;;;
2021/06/03 16:52:44;;;;;;;21.6;19.5;;;;;;;27.7;58.5;101650;;;;
2021/06/03 16:54:44;;;;;;;29.8;27.3;;;;;;;28.0;57.5;101650;;;;
2021/06/03 16:58:44;;;;;;;29.8;27.3;;;;;;;28.2;57.2;101650;;;;
2021/06/03 17:00:44;;;;;;;29.8;27.3;;;;;;;28.1;57.3;101650;;;;
2021/06/03 17:06:44;;;;;;;29.8;27.3;;;;;;;28.4;56.7;101650;;;;
2021/06/03 17:08:44;;;;;;;29.8;27.3;;;;;;;28.3;57.1;101650;;;;
2021/06/03 17:10:44;;;;;;;29.8;27.3;;;;;;;28.2;56.4;101660;;;;
2021/06/03 17:12:45;;;;;;;29.8;27.3;;;;;;;28.0;55.1;101670;;;;
2021/06/03 17:14:44;;;;;;;26.0;23.8;;;;;;;28.2;55.0;101670;;;;
2021/06/03 17:18:44;;;;;;;26.0;23.8;;;;;;;28.1;54.2;101670;;;;
2021/06/03 17:20:44;;;;;;;26.0;23.8;;;;;;;28.0;54.2;101670;;;;
2021/06/03 17:22:44;;;;;;;26.0;23.8;;;;;;;27.6;54.0;101670;;;;
2021/06/03 17:24:44;;;;;;;26.0;23.8;;;;;;;27.4;53.9;101670;;;;
2021/06/03 17:26:44;;;;;;;26.0;23.8;;;;;;;27.1;52.2;101670;;;;
2021/06/03 17:28:45;;;;;;;26.0;23.8;;;;;;;27.5;53.2;101670;;;;
2021/06/03 17:30:44;;;;;;;26.0;23.8;;;;;;;27.4;53.3;101670;;;;
2021/06/03 17:34:44;;;;;;;19.7;18.0;;;;;;;27.3;52.3;101670;;;;
2021/06/03 17:36:46;;;;;;;19.7;18.0;;;;;;;27.2;53.2;101680;;;;
2021/06/03 17:38:44;;;;;;;19.7;18.0;;;;;;;27.1;52.6;101680;;;;
2021/06/03 17:40:48;;;;;;;19.7;18.0;;;;;;;26.8;52.5;101680;;;;
2021/06/03 17:42:44;;;;;;;19.7;18.0;;;;;;;27.0;53.4;101680;;;;
2021/06/03 17:44:44;;;;;;;19.7;18.0;;;;;;;27.3;52.8;101680;;;;
2021/06/03 17:46:45;;;;;;;19.7;18.0;;;;;;;27.4;51.9;101690;;;;
2021/06/03 17:48:44;;;;;;;19.7;18.0;;;;;;;27.1;52.0;101690;;;;